sensor_id;sensor_type;location;lat;lon;timestamp;P1;durP1;ratioP1;P2;durP2;ratioP2
18146;SDS011;9199;48.832;9.182;2024-03-23T00:53:27;14.23;;;6.55;;
18146;SDS011;9199;48.832;9.182;2024-03-23T00:55:54;9.93;;;6.37;;
18146;SDS011;9199;48.832;9.182;2024-03-23T00:58:20;11.95;;;6.47;;
18146;SDS011;9199;48.832;9.182;2024-03-23T01:00:46;10.48;;;5.55;;
18146;SDS011;9199;48.832;9.182;2024-03-23T01:03:12;8.67;;;4.80;;
18146;SDS011;9199;48.832;9.182;2024-03-23T01:05:39;7.00;;;3.70;;
18146;SDS011;9199;48.832;9.182;2024-03-23T01:08:05;6.27;;;3.90;;
18146;SDS011;9199;48.832;9.182;2024-03-23T01:10:34;7.33;;;3.40;;
18146;SDS011;9199;48.832;9.182;2024-03-23T01:12:59;13.75;;;4.85;;
18146;SDS011;9199;48.832;9.182;2024-03-23T01:15:26;9.10;;;4.93;;
18146;SDS011;9199;48.832;9.182;2024-03-23T01:17:52;13.83;;;5.40;;
18146;SDS011;9199;48.832;9.182;2024-03-23T01:20:19;8.18;;;3.00;;
18146;SDS011;9199;48.832;9.182;2024-03-23T01:22:45;8.27;;;3.20;;
18146;SDS011;9199;48.832;9.182;2024-03-23T01:25:12;5.05;;;2.58;;
18146;SDS011;9199;48.832;9.182;2024-03-23T01:27:39;8.27;;;2.40;;
18146;SDS011;9199;48.832;9.182;2024-03-23T01:30:06;6.28;;;2.58;;
18146;SDS011;9199;48.832;9.182;2024-03-23T01:32:32;5.28;;;2.42;;
18146;SDS011;9199;48.832;9.182;2024-03-23T01:34:59;7.03;;;2.30;;
18146;SDS011;9199;48.832;9.182;2024-03-23T01:37:25;6.50;;;2.23;;
18146;SDS011;9199;48.832;9.182;2024-03-23T01:39:52;7.25;;;2.33;;
18146;SDS011;9199;48.832;9.182;2024-03-23T01:42:17;5.43;;;2.30;;
18146;SDS011;9199;48.832;9.182;2024-03-23T01:44:46;5.07;;;2.28;;
18146;SDS011;9199;48.832;9.182;2024-03-23T01:47:12;6.60;;;2.13;;
18146;SDS011;9199;48.832;9.182;2024-03-23T01:49:39;5.90;;;2.40;;
18146;SDS011;9199;48.832;9.182;2024-03-23T01:52:05;3.93;;;2.03;;
18146;SDS011;9199;48.832;9.182;2024-03-23T01:54:32;6.45;;;2.78;;
18146;SDS011;9199;48.832;9.182;2024-03-23T01:56:58;4.32;;;1.85;;
18146;SDS011;9199;48.832;9.182;2024-03-23T01:59:25;4.47;;;2.10;;
18146;SDS011;9199;48.832;9.182;2024-03-23T02:01:53;4.10;;;1.95;;
18146;SDS011;9199;48.832;9.182;2024-03-23T02:04:20;4.53;;;1.98;;
18146;SDS011;9199;48.832;9.182;2024-03-23T02:06:46;5.80;;;2.30;;
18146;SDS011;9199;48.832;9.182;2024-03-23T02:09:14;4.78;;;2.28;;
18146;SDS011;9199;48.832;9.182;2024-03-23T02:11:40;6.70;;;2.00;;
18146;SDS011;9199;48.832;9.182;2024-03-23T02:14:07;5.82;;;2.53;;
18146;SDS011;9199;48.832;9.182;2024-03-23T02:16:33;4.72;;;2.10;;
18146;SDS011;9199;48.832;9.182;2024-03-23T02:19:02;5.03;;;2.38;;
18146;SDS011;9199;48.832;9.182;2024-03-23T02:21:28;5.05;;;2.17;;
18146;SDS011;9199;48.832;9.182;2024-03-23T02:23:58;5.27;;;2.10;;
18146;SDS011;9199;48.832;9.182;2024-03-23T02:26:27;4.63;;;2.05;;
18146;SDS011;9199;48.832;9.182;2024-03-23T02:28:54;4.05;;;2.13;;
18146;SDS011;9199;48.832;9.182;2024-03-23T02:31:19;4.78;;;2.20;;
18146;SDS011;9199;48.832;9.182;2024-03-23T02:33:46;4.50;;;2.27;;
18146;SDS011;9199;48.832;9.182;2024-03-23T02:36:12;6.15;;;2.42;;
18146;SDS011;9199;48.832;9.182;2024-03-23T02:38:38;5.28;;;2.20;;
18146;SDS011;9199;48.832;9.182;2024-03-23T02:41:05;4.50;;;2.07;;
18146;SDS011;9199;48.832;9.182;2024-03-23T02:43:32;5.50;;;2.33;;
18146;SDS011;9199;48.832;9.182;2024-03-23T02:45:58;5.55;;;2.10;;
18146;SDS011;9199;48.832;9.182;2024-03-23T02:48:25;6.17;;;1.97;;
18146;SDS011;9199;48.832;9.182;2024-03-23T02:50:51;4.93;;;2.17;;
18146;SDS011;9199;48.832;9.182;2024-03-23T02:53:19;6.25;;;2.40;;
18146;SDS011;9199;48.832;9.182;2024-03-23T02:55:45;8.73;;;2.57;;
18146;SDS011;9199;48.832;9.182;2024-03-23T02:58:13;4.13;;;2.17;;
18146;SDS011;9199;48.832;9.182;2024-03-23T03:00:38;9.38;;;2.42;;
18146;SDS011;9199;48.832;9.182;2024-03-23T03:03:05;6.30;;;2.65;;
18146;SDS011;9199;48.832;9.182;2024-03-23T03:05:32;5.28;;;2.00;;
18146;SDS011;9199;48.832;9.182;2024-03-23T03:07:58;5.03;;;2.40;;
18146;SDS011;9199;48.832;9.182;2024-03-23T03:10:24;5.05;;;2.33;;
18146;SDS011;9199;48.832;9.182;2024-03-23T03:12:51;5.32;;;2.30;;
18146;SDS011;9199;48.832;9.182;2024-03-23T03:15:18;4.33;;;2.27;;
18146;SDS011;9199;48.832;9.182;2024-03-23T03:17:45;4.82;;;2.10;;
18146;SDS011;9199;48.832;9.182;2024-03-23T03:20:10;4.10;;;1.77;;
18146;SDS011;9199;48.832;9.182;2024-03-23T03:22:39;5.78;;;2.00;;
18146;SDS011;9199;48.832;9.182;2024-03-23T03:25:05;4.38;;;1.98;;
18146;SDS011;9199;48.832;9.182;2024-03-23T03:27:32;4.63;;;2.15;;
18146;SDS011;9199;48.832;9.182;2024-03-23T03:29:59;4.80;;;1.95;;
18146;SDS011;9199;48.832;9.182;2024-03-23T03:32:28;7.90;;;2.23;;
18146;SDS011;9199;48.832;9.182;2024-03-23T03:34:54;5.00;;;2.13;;
18146;SDS011;9199;48.832;9.182;2024-03-23T03:37:20;4.90;;;2.28;;
18146;SDS011;9199;48.832;9.182;2024-03-23T03:39:46;4.47;;;1.95;;
18146;SDS011;9199;48.832;9.182;2024-03-23T03:42:13;3.97;;;1.93;;
18146;SDS011;9199;48.832;9.182;2024-03-23T03:44:39;4.10;;;1.95;;
18146;SDS011;9199;48.832;9.182;2024-03-23T03:47:06;4.53;;;2.00;;
18146;SDS011;9199;48.832;9.182;2024-03-23T03:49:33;4.85;;;2.10;;
18146;SDS011;9199;48.832;9.182;2024-03-23T03:52:00;4.78;;;2.25;;
18146;SDS011;9199;48.832;9.182;2024-03-23T03:54:27;4.77;;;2.00;;
18146;SDS011;9199;48.832;9.182;2024-03-23T03:56:53;4.68;;;2.08;;
18146;SDS011;9199;48.832;9.182;2024-03-23T03:59:19;4.75;;;2.05;;
18146;SDS011;9199;48.832;9.182;2024-03-23T04:01:46;4.97;;;2.20;;
18146;SDS011;9199;48.832;9.182;2024-03-23T04:04:12;5.72;;;2.10;;
18146;SDS011;9199;48.832;9.182;2024-03-23T04:06:42;6.82;;;2.20;;
18146;SDS011;9199;48.832;9.182;2024-03-23T04:09:08;4.20;;;2.10;;
18146;SDS011;9199;48.832;9.182;2024-03-23T04:11:35;4.50;;;1.73;;
18146;SDS011;9199;48.832;9.182;2024-03-23T04:14:01;4.15;;;1.90;;
18146;SDS011;9199;48.832;9.182;2024-03-23T04:16:27;4.80;;;1.90;;
18146;SDS011;9199;48.832;9.182;2024-03-23T04:18:54;5.43;;;2.10;;
18146;SDS011;9199;48.832;9.182;2024-03-23T04:21:21;4.23;;;2.10;;
18146;SDS011;9199;48.832;9.182;2024-03-23T04:23:48;5.00;;;2.13;;
18146;SDS011;9199;48.832;9.182;2024-03-23T04:26:15;4.63;;;2.10;;
18146;SDS011;9199;48.832;9.182;2024-03-23T04:28:41;4.47;;;2.27;;
18146;SDS011;9199;48.832;9.182;2024-03-23T04:31:08;8.43;;;2.83;;
18146;SDS011;9199;48.832;9.182;2024-03-23T04:33:33;7.03;;;2.95;;
18146;SDS011;9199;48.832;9.182;2024-03-23T04:36:00;7.30;;;3.10;;
18146;SDS011;9199;48.832;9.182;2024-03-23T04:38:26;7.13;;;3.20;;
18146;SDS011;9199;48.832;9.182;2024-03-23T04:40:57;6.77;;;3.47;;
18146;SDS011;9199;48.832;9.182;2024-03-23T04:43:25;6.85;;;3.60;;
18146;SDS011;9199;48.832;9.182;2024-03-23T04:45:52;6.55;;;3.72;;
18146;SDS011;9199;48.832;9.182;2024-03-23T04:48:19;6.95;;;3.90;;
18146;SDS011;9199;48.832;9.182;2024-03-23T04:50:47;8.60;;;4.45;;
18146;SDS011;9199;48.832;9.182;2024-03-23T04:53:14;8.63;;;5.23;;
18146;SDS011;9199;48.832;9.182;2024-03-23T04:55:40;11.07;;;5.85;;
18146;SDS011;9199;48.832;9.182;2024-03-23T04:58:07;12.18;;;6.22;;
18146;SDS011;9199;48.832;9.182;2024-03-23T05:00:34;12.20;;;6.77;;
18146;SDS011;9199;48.832;9.182;2024-03-23T05:03:00;13.65;;;8.05;;
18146;SDS011;9199;48.832;9.182;2024-03-23T05:05:27;15.60;;;9.60;;
18146;SDS011;9199;48.832;9.182;2024-03-23T05:07:53;17.35;;;9.93;;
18146;SDS011;9199;48.832;9.182;2024-03-23T05:10:19;17.03;;;10.47;;
18146;SDS011;9199;48.832;9.182;2024-03-23T05:12:45;17.67;;;10.82;;
18146;SDS011;9199;48.832;9.182;2024-03-23T05:15:13;15.98;;;10.25;;
18146;SDS011;9199;48.832;9.182;2024-03-23T05:17:39;18.23;;;10.33;;
18146;SDS011;9199;48.832;9.182;2024-03-23T05:20:05;19.63;;;10.50;;
18146;SDS011;9199;48.832;9.182;2024-03-23T05:22:34;21.67;;;11.40;;
18146;SDS011;9199;48.832;9.182;2024-03-23T05:25:01;19.52;;;10.73;;
18146;SDS011;9199;48.832;9.182;2024-03-23T05:27:29;18.20;;;11.40;;
18146;SDS011;9199;48.832;9.182;2024-03-23T05:29:57;21.20;;;10.77;;
18146;SDS011;9199;48.832;9.182;2024-03-23T05:32:24;19.13;;;10.35;;
18146;SDS011;9199;48.832;9.182;2024-03-23T05:34:51;22.13;;;11.10;;
18146;SDS011;9199;48.832;9.182;2024-03-23T05:37:20;17.58;;;10.57;;
18146;SDS011;9199;48.832;9.182;2024-03-23T05:39:47;17.93;;;9.90;;
18146;SDS011;9199;48.832;9.182;2024-03-23T05:42:14;16.42;;;10.38;;
18146;SDS011;9199;48.832;9.182;2024-03-23T05:44:42;16.48;;;9.32;;
18146;SDS011;9199;48.832;9.182;2024-03-23T05:47:08;17.67;;;10.20;;
18146;SDS011;9199;48.832;9.182;2024-03-23T05:49:37;19.05;;;10.63;;
18146;SDS011;9199;48.832;9.182;2024-03-23T05:52:03;16.63;;;9.63;;
18146;SDS011;9199;48.832;9.182;2024-03-23T05:54:29;16.25;;;9.13;;
18146;SDS011;9199;48.832;9.182;2024-03-23T05:56:56;14.48;;;8.57;;
18146;SDS011;9199;48.832;9.182;2024-03-23T05:59:22;12.40;;;7.53;;
18146;SDS011;9199;48.832;9.182;2024-03-23T06:01:49;10.93;;;6.00;;
18146;SDS011;9199;48.832;9.182;2024-03-23T06:04:14;10.00;;;5.35;;
18146;SDS011;9199;48.832;9.182;2024-03-23T06:06:42;8.27;;;4.70;;
18146;SDS011;9199;48.832;9.182;2024-03-23T06:09:08;7.97;;;3.50;;
18146;SDS011;9199;48.832;9.182;2024-03-23T06:11:35;7.93;;;3.85;;
18146;SDS011;9199;48.832;9.182;2024-03-23T06:14:00;8.10;;;3.42;;
18146;SDS011;9199;48.832;9.182;2024-03-23T06:16:27;7.63;;;3.33;;
18146;SDS011;9199;48.832;9.182;2024-03-23T06:18:53;5.57;;;2.85;;
18146;SDS011;9199;48.832;9.182;2024-03-23T06:21:20;5.25;;;2.50;;
18146;SDS011;9199;48.832;9.182;2024-03-23T06:23:51;5.55;;;2.78;;
18146;SDS011;9199;48.832;9.182;2024-03-23T06:26:18;5.20;;;2.47;;
18146;SDS011;9199;48.832;9.182;2024-03-23T06:28:44;4.80;;;2.30;;
18146;SDS011;9199;48.832;9.182;2024-03-23T06:31:11;5.90;;;2.03;;
18146;SDS011;9199;48.832;9.182;2024-03-23T06:33:37;5.30;;;2.17;;
18146;SDS011;9199;48.832;9.182;2024-03-23T06:36:04;4.50;;;1.80;;
18146;SDS011;9199;48.832;9.182;2024-03-23T06:38:30;4.65;;;1.90;;
18146;SDS011;9199;48.832;9.182;2024-03-23T06:40:58;4.88;;;1.98;;
18146;SDS011;9199;48.832;9.182;2024-03-23T06:43:24;4.50;;;1.92;;
18146;SDS011;9199;48.832;9.182;2024-03-23T06:45:54;5.43;;;1.40;;
18146;SDS011;9199;48.832;9.182;2024-03-23T06:48:21;2.80;;;1.20;;
18146;SDS011;9199;48.832;9.182;2024-03-23T06:50:47;2.67;;;1.00;;
18146;SDS011;9199;48.832;9.182;2024-03-23T06:53:13;2.25;;;0.93;;
18146;SDS011;9199;48.832;9.182;2024-03-23T06:55:40;3.40;;;1.00;;
18146;SDS011;9199;48.832;9.182;2024-03-23T06:58:08;2.70;;;1.00;;
18146;SDS011;9199;48.832;9.182;2024-03-23T07:00:35;3.17;;;1.00;;
18146;SDS011;9199;48.832;9.182;2024-03-23T07:03:01;3.47;;;0.80;;
18146;SDS011;9199;48.832;9.182;2024-03-23T07:05:29;2.90;;;1.00;;
18146;SDS011;9199;48.832;9.182;2024-03-23T07:07:54;2.27;;;0.90;;
18146;SDS011;9199;48.832;9.182;2024-03-23T07:10:21;2.50;;;0.80;;
18146;SDS011;9199;48.832;9.182;2024-03-23T07:12:47;1.63;;;0.70;;
18146;SDS011;9199;48.832;9.182;2024-03-23T07:15:15;2.30;;;0.90;;
18146;SDS011;9199;48.832;9.182;2024-03-23T07:17:41;2.05;;;0.80;;
18146;SDS011;9199;48.832;9.182;2024-03-23T07:20:08;3.25;;;0.80;;
18146;SDS011;9199;48.832;9.182;2024-03-23T07:22:35;1.48;;;0.73;;
18146;SDS011;9199;48.832;9.182;2024-03-23T07:25:02;1.35;;;0.70;;
18146;SDS011;9199;48.832;9.182;2024-03-23T07:27:30;1.37;;;0.70;;
18146;SDS011;9199;48.832;9.182;2024-03-23T07:29:56;2.22;;;0.70;;
18146;SDS011;9199;48.832;9.182;2024-03-23T07:32:23;2.08;;;0.90;;
18146;SDS011;9199;48.832;9.182;2024-03-23T07:34:51;1.83;;;0.90;;
18146;SDS011;9199;48.832;9.182;2024-03-23T07:37:18;1.90;;;0.80;;
18146;SDS011;9199;48.832;9.182;2024-03-23T07:39:44;1.83;;;0.80;;
18146;SDS011;9199;48.832;9.182;2024-03-23T07:42:10;1.75;;;0.70;;
18146;SDS011;9199;48.832;9.182;2024-03-23T07:44:37;1.83;;;0.75;;
18146;SDS011;9199;48.832;9.182;2024-03-23T07:47:03;1.53;;;0.80;;
18146;SDS011;9199;48.832;9.182;2024-03-23T07:49:31;2.58;;;0.80;;
18146;SDS011;9199;48.832;9.182;2024-03-23T07:51:57;1.45;;;0.80;;
18146;SDS011;9199;48.832;9.182;2024-03-23T07:54:23;2.03;;;0.70;;
18146;SDS011;9199;48.832;9.182;2024-03-23T07:56:49;1.50;;;0.60;;
18146;SDS011;9199;48.832;9.182;2024-03-23T07:59:16;1.30;;;0.60;;
18146;SDS011;9199;48.832;9.182;2024-03-23T08:01:44;1.80;;;0.63;;
18146;SDS011;9199;48.832;9.182;2024-03-23T08:04:10;1.90;;;0.67;;
18146;SDS011;9199;48.832;9.182;2024-03-23T08:06:39;1.65;;;0.70;;
18146;SDS011;9199;48.832;9.182;2024-03-23T08:09:04;1.85;;;0.85;;
18146;SDS011;9199;48.832;9.182;2024-03-23T08:11:31;2.05;;;0.85;;
18146;SDS011;9199;48.832;9.182;2024-03-23T08:13:59;1.30;;;0.53;;
18146;SDS011;9199;48.832;9.182;2024-03-23T08:16:26;1.20;;;0.50;;
18146;SDS011;9199;48.832;9.182;2024-03-23T08:18:52;1.65;;;0.70;;
18146;SDS011;9199;48.832;9.182;2024-03-23T08:21:20;1.45;;;0.60;;
18146;SDS011;9199;48.832;9.182;2024-03-23T08:23:47;2.17;;;0.80;;
18146;SDS011;9199;48.832;9.182;2024-03-23T08:26:14;1.70;;;0.73;;
18146;SDS011;9199;48.832;9.182;2024-03-23T08:28:40;2.22;;;0.82;;
18146;SDS011;9199;48.832;9.182;2024-03-23T08:31:08;1.20;;;0.60;;
18146;SDS011;9199;48.832;9.182;2024-03-23T08:33:35;3.27;;;0.60;;
18146;SDS011;9199;48.832;9.182;2024-03-23T08:36:02;1.67;;;0.50;;
18146;SDS011;9199;48.832;9.182;2024-03-23T08:38:29;1.38;;;0.50;;
18146;SDS011;9199;48.832;9.182;2024-03-23T08:40:58;2.45;;;0.63;;
18146;SDS011;9199;48.832;9.182;2024-03-23T08:43:24;2.13;;;0.70;;
18146;SDS011;9199;48.832;9.182;2024-03-23T08:45:51;2.70;;;0.80;;
18146;SDS011;9199;48.832;9.182;2024-03-23T08:48:18;2.20;;;0.70;;
18146;SDS011;9199;48.832;9.182;2024-03-23T08:50:46;3.05;;;0.80;;
18146;SDS011;9199;48.832;9.182;2024-03-23T08:53:12;9.95;;;1.20;;
18146;SDS011;9199;48.832;9.182;2024-03-23T08:55:39;5.83;;;1.30;;
18146;SDS011;9199;48.832;9.182;2024-03-23T08:58:06;4.78;;;1.40;;
18146;SDS011;9199;48.832;9.182;2024-03-23T09:00:38;5.28;;;1.30;;
18146;SDS011;9199;48.832;9.182;2024-03-23T09:03:05;5.68;;;1.40;;
18146;SDS011;9199;48.832;9.182;2024-03-23T09:05:38;6.40;;;1.53;;
18146;SDS011;9199;48.832;9.182;2024-03-23T09:08:09;5.20;;;1.50;;
18146;SDS011;9199;48.832;9.182;2024-03-23T09:10:38;7.50;;;1.85;;
18146;SDS011;9199;48.832;9.182;2024-03-23T09:13:06;9.88;;;1.85;;
18146;SDS011;9199;48.832;9.182;2024-03-23T09:15:33;5.18;;;1.60;;
18146;SDS011;9199;48.832;9.182;2024-03-23T09:18:00;7.27;;;1.90;;
18146;SDS011;9199;48.832;9.182;2024-03-23T09:20:27;8.25;;;1.95;;
18146;SDS011;9199;48.832;9.182;2024-03-23T09:22:52;8.13;;;2.00;;
18146;SDS011;9199;48.832;9.182;2024-03-23T09:25:22;5.13;;;1.80;;
18146;SDS011;9199;48.832;9.182;2024-03-23T09:27:47;7.07;;;1.90;;
18146;SDS011;9199;48.832;9.182;2024-03-23T09:30:16;5.88;;;1.70;;
18146;SDS011;9199;48.832;9.182;2024-03-23T09:32:43;7.88;;;2.28;;
18146;SDS011;9199;48.832;9.182;2024-03-23T09:35:10;6.10;;;2.20;;
18146;SDS011;9199;48.832;9.182;2024-03-23T09:37:36;6.57;;;2.00;;
18146;SDS011;9199;48.832;9.182;2024-03-23T09:40:04;8.25;;;1.90;;
18146;SDS011;9199;48.832;9.182;2024-03-23T09:42:32;7.45;;;1.80;;
18146;SDS011;9199;48.832;9.182;2024-03-23T09:44:59;8.95;;;2.15;;
18146;SDS011;9199;48.832;9.182;2024-03-23T09:47:27;7.90;;;1.83;;
18146;SDS011;9199;48.832;9.182;2024-03-23T09:49:55;7.85;;;2.20;;
18146;SDS011;9199;48.832;9.182;2024-03-23T09:52:21;5.63;;;2.10;;
18146;SDS011;9199;48.832;9.182;2024-03-23T09:54:47;5.93;;;1.93;;
18146;SDS011;9199;48.832;9.182;2024-03-23T09:57:13;6.53;;;2.03;;
18146;SDS011;9199;48.832;9.182;2024-03-23T09:59:40;7.93;;;2.13;;
18146;SDS011;9199;48.832;9.182;2024-03-23T10:02:06;8.83;;;2.27;;
18146;SDS011;9199;48.832;9.182;2024-03-23T10:04:37;8.00;;;2.05;;
18146;SDS011;9199;48.832;9.182;2024-03-23T10:07:13;8.45;;;2.13;;
18146;SDS011;9199;48.832;9.182;2024-03-23T10:09:42;7.20;;;2.20;;
18146;SDS011;9199;48.832;9.182;2024-03-23T10:12:08;6.97;;;2.20;;
18146;SDS011;9199;48.832;9.182;2024-03-23T10:14:36;8.63;;;2.08;;
18146;SDS011;9199;48.832;9.182;2024-03-23T10:17:11;7.65;;;2.67;;
18146;SDS011;9199;48.832;9.182;2024-03-23T10:19:41;6.22;;;2.22;;
18146;SDS011;9199;48.832;9.182;2024-03-23T10:22:08;7.10;;;2.22;;
18146;SDS011;9199;48.832;9.182;2024-03-23T10:24:35;8.47;;;2.70;;
18146;SDS011;9199;48.832;9.182;2024-03-23T10:27:01;5.75;;;2.20;;
18146;SDS011;9199;48.832;9.182;2024-03-23T10:29:27;6.07;;;2.40;;
18146;SDS011;9199;48.832;9.182;2024-03-23T10:31:53;5.40;;;2.20;;
18146;SDS011;9199;48.832;9.182;2024-03-23T10:34:24;9.30;;;2.25;;
18146;SDS011;9199;48.832;9.182;2024-03-23T10:36:52;5.97;;;2.10;;
18146;SDS011;9199;48.832;9.182;2024-03-23T10:39:20;6.25;;;2.30;;
18146;SDS011;9199;48.832;9.182;2024-03-23T10:41:46;8.18;;;2.33;;
18146;SDS011;9199;48.832;9.182;2024-03-23T10:44:16;7.03;;;2.03;;
18146;SDS011;9199;48.832;9.182;2024-03-23T10:46:44;8.65;;;2.67;;
18146;SDS011;9199;48.832;9.182;2024-03-23T10:49:11;7.30;;;2.30;;
18146;SDS011;9199;48.832;9.182;2024-03-23T10:51:37;9.15;;;2.30;;
18146;SDS011;9199;48.832;9.182;2024-03-23T10:54:05;8.27;;;2.90;;
18146;SDS011;9199;48.832;9.182;2024-03-23T10:56:32;6.47;;;3.00;;
18146;SDS011;9199;48.832;9.182;2024-03-23T10:59:02;10.60;;;3.20;;
18146;SDS011;9199;48.832;9.182;2024-03-23T11:01:32;8.32;;;3.42;;
18146;SDS011;9199;48.832;9.182;2024-03-23T11:03:59;8.05;;;2.83;;
18146;SDS011;9199;48.832;9.182;2024-03-23T11:06:34;11.60;;;3.60;;
18146;SDS011;9199;48.832;9.182;2024-03-23T11:09:03;9.57;;;3.10;;
18146;SDS011;9199;48.832;9.182;2024-03-23T11:11:30;9.52;;;3.03;;
18146;SDS011;9199;48.832;9.182;2024-03-23T11:13:58;9.48;;;3.80;;
18146;SDS011;9199;48.832;9.182;2024-03-23T11:16:25;9.67;;;3.60;;
18146;SDS011;9199;48.832;9.182;2024-03-23T11:18:55;9.02;;;3.00;;
18146;SDS011;9199;48.832;9.182;2024-03-23T11:21:59;8.80;;;3.10;;
18146;SDS011;9199;48.832;9.182;2024-03-23T11:24:25;7.28;;;2.75;;
18146;SDS011;9199;48.832;9.182;2024-03-23T11:26:52;6.50;;;2.53;;
18146;SDS011;9199;48.832;9.182;2024-03-23T11:29:19;8.07;;;2.13;;
18146;SDS011;9199;48.832;9.182;2024-03-23T11:31:46;4.60;;;1.90;;
18146;SDS011;9199;48.832;9.182;2024-03-23T11:34:13;5.47;;;1.60;;
18146;SDS011;9199;48.832;9.182;2024-03-23T11:36:40;5.65;;;1.80;;
18146;SDS011;9199;48.832;9.182;2024-03-23T11:39:13;4.87;;;1.60;;
18146;SDS011;9199;48.832;9.182;2024-03-23T11:41:47;4.10;;;1.35;;
18146;SDS011;9199;48.832;9.182;2024-03-23T11:44:16;4.50;;;1.30;;
18146;SDS011;9199;48.832;9.182;2024-03-23T11:46:42;4.13;;;1.50;;
18146;SDS011;9199;48.832;9.182;2024-03-23T11:49:19;5.97;;;1.65;;
18146;SDS011;9199;48.832;9.182;2024-03-23T11:51:48;4.13;;;1.57;;
18146;SDS011;9199;48.832;9.182;2024-03-23T11:54:15;5.25;;;1.70;;
18146;SDS011;9199;48.832;9.182;2024-03-23T11:56:53;5.40;;;1.60;;
18146;SDS011;9199;48.832;9.182;2024-03-23T11:59:31;4.80;;;1.42;;
18146;SDS011;9199;48.832;9.182;2024-03-23T12:01:57;5.43;;;1.55;;
18146;SDS011;9199;48.832;9.182;2024-03-23T12:04:25;4.07;;;1.50;;
18146;SDS011;9199;48.832;9.182;2024-03-23T12:06:51;6.18;;;1.40;;
18146;SDS011;9199;48.832;9.182;2024-03-23T12:09:35;4.38;;;1.27;;
18146;SDS011;9199;48.832;9.182;2024-03-23T12:12:05;6.43;;;1.40;;
18146;SDS011;9199;48.832;9.182;2024-03-23T12:14:34;5.47;;;1.20;;
18146;SDS011;9199;48.832;9.182;2024-03-23T12:17:07;6.43;;;1.37;;
18146;SDS011;9199;48.832;9.182;2024-03-23T12:19:35;5.32;;;1.08;;
18146;SDS011;9199;48.832;9.182;2024-03-23T12:22:00;6.63;;;1.30;;
18146;SDS011;9199;48.832;9.182;2024-03-23T12:24:28;8.60;;;1.50;;
18146;SDS011;9199;48.832;9.182;2024-03-23T12:26:54;4.87;;;1.30;;
18146;SDS011;9199;48.832;9.182;2024-03-23T12:29:21;8.13;;;1.58;;
18146;SDS011;9199;48.832;9.182;2024-03-23T12:31:49;9.13;;;1.30;;
18146;SDS011;9199;48.832;9.182;2024-03-23T12:34:15;5.15;;;1.35;;
18146;SDS011;9199;48.832;9.182;2024-03-23T12:36:42;7.60;;;1.50;;
18146;SDS011;9199;48.832;9.182;2024-03-23T12:39:08;7.85;;;1.48;;
18146;SDS011;9199;48.832;9.182;2024-03-23T12:41:34;6.93;;;1.40;;
18146;SDS011;9199;48.832;9.182;2024-03-23T12:44:00;6.23;;;1.40;;
18146;SDS011;9199;48.832;9.182;2024-03-23T12:46:27;5.43;;;1.42;;
18146;SDS011;9199;48.832;9.182;2024-03-23T12:48:54;6.97;;;1.70;;
18146;SDS011;9199;48.832;9.182;2024-03-23T12:51:20;6.10;;;1.63;;
18146;SDS011;9199;48.832;9.182;2024-03-23T12:53:46;7.20;;;1.45;;
18146;SDS011;9199;48.832;9.182;2024-03-23T12:56:13;6.43;;;1.58;;
18146;SDS011;9199;48.832;9.182;2024-03-23T12:58:39;6.87;;;1.70;;
18146;SDS011;9199;48.832;9.182;2024-03-23T13:01:05;8.35;;;1.60;;
18146;SDS011;9199;48.832;9.182;2024-03-23T13:03:31;8.47;;;1.77;;
18146;SDS011;9199;48.832;9.182;2024-03-23T13:05:59;7.43;;;1.40;;
18146;SDS011;9199;48.832;9.182;2024-03-23T13:08:25;7.50;;;1.50;;
18146;SDS011;9199;48.832;9.182;2024-03-23T13:10:51;7.75;;;1.80;;
18146;SDS011;9199;48.832;9.182;2024-03-23T13:13:17;7.80;;;1.80;;
18146;SDS011;9199;48.832;9.182;2024-03-23T13:15:49;7.72;;;2.13;;
18146;SDS011;9199;48.832;9.182;2024-03-23T13:18:15;5.88;;;1.55;;
18146;SDS011;9199;48.832;9.182;2024-03-23T13:20:41;7.30;;;1.60;;
18146;SDS011;9199;48.832;9.182;2024-03-23T13:23:09;6.23;;;1.40;;
18146;SDS011;9199;48.832;9.182;2024-03-23T13:25:35;7.18;;;1.38;;
18146;SDS011;9199;48.832;9.182;2024-03-23T13:28:02;8.15;;;1.50;;
18146;SDS011;9199;48.832;9.182;2024-03-23T13:30:29;7.10;;;1.33;;
18146;SDS011;9199;48.832;9.182;2024-03-23T13:32:55;6.03;;;1.30;;
18146;SDS011;9199;48.832;9.182;2024-03-23T13:35:21;6.47;;;1.48;;
18146;SDS011;9199;48.832;9.182;2024-03-23T13:37:48;6.40;;;1.30;;
18146;SDS011;9199;48.832;9.182;2024-03-23T13:40:15;7.33;;;1.43;;
18146;SDS011;9199;48.832;9.182;2024-03-23T13:42:45;5.22;;;1.35;;
18146;SDS011;9199;48.832;9.182;2024-03-23T13:45:11;7.43;;;1.30;;
18146;SDS011;9199;48.832;9.182;2024-03-23T13:47:37;5.13;;;1.30;;
18146;SDS011;9199;48.832;9.182;2024-03-23T13:50:04;6.33;;;1.40;;
18146;SDS011;9199;48.832;9.182;2024-03-23T13:52:32;6.03;;;1.30;;
18146;SDS011;9199;48.832;9.182;2024-03-23T13:54:57;6.05;;;1.30;;
18146;SDS011;9199;48.832;9.182;2024-03-23T13:57:25;6.25;;;1.02;;
18146;SDS011;9199;48.832;9.182;2024-03-23T13:59:51;6.53;;;1.50;;
18146;SDS011;9199;48.832;9.182;2024-03-23T14:02:18;6.22;;;1.10;;
18146;SDS011;9199;48.832;9.182;2024-03-23T14:04:44;6.63;;;1.52;;
18146;SDS011;9199;48.832;9.182;2024-03-23T14:07:11;5.05;;;1.30;;
18146;SDS011;9199;48.832;9.182;2024-03-23T14:09:37;4.77;;;1.20;;
18146;SDS011;9199;48.832;9.182;2024-03-23T14:12:04;6.40;;;1.20;;
18146;SDS011;9199;48.832;9.182;2024-03-23T14:14:32;4.50;;;1.48;;
18146;SDS011;9199;48.832;9.182;2024-03-23T14:16:59;7.90;;;1.45;;
18146;SDS011;9199;48.832;9.182;2024-03-23T14:19:25;5.63;;;1.40;;
18146;SDS011;9199;48.832;9.182;2024-03-23T14:21:51;4.95;;;1.25;;
18146;SDS011;9199;48.832;9.182;2024-03-23T14:24:17;3.77;;;1.10;;
18146;SDS011;9199;48.832;9.182;2024-03-23T14:26:44;3.10;;;1.00;;
18146;SDS011;9199;48.832;9.182;2024-03-23T14:29:10;3.72;;;1.02;;
18146;SDS011;9199;48.832;9.182;2024-03-23T14:31:38;4.13;;;1.00;;
18146;SDS011;9199;48.832;9.182;2024-03-23T14:34:04;3.60;;;1.00;;
18146;SDS011;9199;48.832;9.182;2024-03-23T14:36:31;2.57;;;0.67;;
18146;SDS011;9199;48.832;9.182;2024-03-23T14:38:56;4.55;;;1.08;;
18146;SDS011;9199;48.832;9.182;2024-03-23T14:41:23;3.03;;;0.80;;
18146;SDS011;9199;48.832;9.182;2024-03-23T14:43:49;1.90;;;0.60;;
18146;SDS011;9199;48.832;9.182;2024-03-23T14:46:18;3.87;;;0.90;;
18146;SDS011;9199;48.832;9.182;2024-03-23T14:48:46;3.47;;;0.80;;
18146;SDS011;9199;48.832;9.182;2024-03-23T14:51:12;2.83;;;0.80;;
18146;SDS011;9199;48.832;9.182;2024-03-23T14:53:39;3.80;;;0.90;;
18146;SDS011;9199;48.832;9.182;2024-03-23T14:56:06;3.75;;;1.10;;
18146;SDS011;9199;48.832;9.182;2024-03-23T14:58:32;6.45;;;1.40;;
18146;SDS011;9199;48.832;9.182;2024-03-23T15:01:00;4.07;;;1.10;;
18146;SDS011;9199;48.832;9.182;2024-03-23T15:03:26;5.90;;;1.17;;
18146;SDS011;9199;48.832;9.182;2024-03-23T15:05:55;6.17;;;1.10;;
18146;SDS011;9199;48.832;9.182;2024-03-23T15:08:22;5.20;;;1.20;;
18146;SDS011;9199;48.832;9.182;2024-03-23T15:10:49;4.88;;;1.00;;
18146;SDS011;9199;48.832;9.182;2024-03-23T15:13:15;4.82;;;0.85;;
18146;SDS011;9199;48.832;9.182;2024-03-23T15:15:42;6.53;;;1.15;;
18146;SDS011;9199;48.832;9.182;2024-03-23T15:18:09;3.80;;;1.00;;
18146;SDS011;9199;48.832;9.182;2024-03-23T15:20:37;5.90;;;0.90;;
18146;SDS011;9199;48.832;9.182;2024-03-23T15:23:05;3.47;;;1.00;;
18146;SDS011;9199;48.832;9.182;2024-03-23T15:25:31;4.18;;;0.90;;
18146;SDS011;9199;48.832;9.182;2024-03-23T15:27:57;5.33;;;0.90;;
18146;SDS011;9199;48.832;9.182;2024-03-23T15:30:25;3.83;;;0.70;;
18146;SDS011;9199;48.832;9.182;2024-03-23T15:32:50;5.20;;;0.80;;
18146;SDS011;9199;48.832;9.182;2024-03-23T15:35:17;2.80;;;0.60;;
18146;SDS011;9199;48.832;9.182;2024-03-23T15:37:44;2.85;;;0.85;;
18146;SDS011;9199;48.832;9.182;2024-03-23T15:40:12;3.45;;;0.88;;
18146;SDS011;9199;48.832;9.182;2024-03-23T15:42:38;2.63;;;0.80;;
18146;SDS011;9199;48.832;9.182;2024-03-23T15:45:06;3.30;;;0.85;;
18146;SDS011;9199;48.832;9.182;2024-03-23T15:47:32;2.50;;;0.80;;
18146;SDS011;9199;48.832;9.182;2024-03-23T15:49:59;2.38;;;0.70;;
18146;SDS011;9199;48.832;9.182;2024-03-23T15:52:25;3.30;;;0.70;;